X  Cerrar Datos meteorológicos de aviación METAR     LGRX Patras Araxos Agamemnon Airport
Temperatura
61°F Temperatura
52°F Punto de rocío
72% Humedad



Viento
0 MPH
0 KM/H
0 M/S
0 NUDO



Calma
N
Condiciones actuales

Parcialmente nublado Parcialmente nublado
Presión 1015.92 (hPa) - 30 (inHg)
Visibilidad 6 (milla) - 9.7 (km)
Aeropuerto
Código de aeropuerto LGRX

localidad: Patras Araxos Agamemnon Airport
Distancia: 108 (mi)

Metar:
LGRX 272050Z 00000KT 9999 FEW020 16/11 Q1016

Hora: 27-05-2024 23:50 EEST